Westover AFB, Massachusetts
Current Conditions -  °F | °C
As of 2:58 AM on Saturday 01 Nov 2014 (Local Time) from KCEF Reporting Station
Overcast Overcast  
Wind Chill: 39°   Ceiling: 5000
Heat Index: 45°   Visibility: 10mi
Dew Point: 37°   Wind: 10mph
Humidity: 74%   Direction: 10°N
Pressure: 29.92"   Gusts: NA
Location:  42.1968°N, 72.5424°W
Report Text: KCEF 010658Z AUTO 01009KT 10SM OVC050 07/03 A2992 RMK AO2 SLP139 T00700027
Loading
Personal Weather Stations






























Interactive Weather Map
Tropical Storm Tracking
New forecast layout! Learn more

10-Day Weather Forecast

Advertisements
Track Severe Weather on mobile